createdAt,value
2018-01-22T00:00:53.260Z,60.71
2018-01-22T00:03:21.624Z,60.36
2018-01-22T00:05:50.418Z,59.65
2018-01-22T00:08:18.788Z,60.04
2018-01-22T00:10:47.723Z,60.88
2018-01-22T00:13:16.128Z,61.22
2018-01-22T00:15:44.526Z,60.79
2018-01-22T00:18:13.272Z,60.32
2018-01-22T00:20:41.639Z,60.38
2018-01-22T00:23:10.809Z,61.34
2018-01-22T00:25:39.168Z,61.67
2018-01-22T00:28:08.027Z,60.93
2018-01-22T00:30:36.464Z,60.48
2018-01-22T00:33:04.885Z,62.03
2018-01-22T00:35:33.363Z,61.52
2018-01-22T00:38:01.740Z,61.62
2018-01-22T00:40:30.225Z,61.54
2018-01-22T00:42:58.672Z,61.61
2018-01-22T00:45:27.076Z,61.55
2018-01-22T00:47:55.451Z,62.33
2018-01-22T00:50:23.817Z,61.55
2018-01-22T00:52:52.219Z,61.52
2018-01-22T00:55:20.580Z,62.03
2018-01-22T00:57:48.975Z,62.76
2018-01-22T01:00:17.337Z,61.90
2018-01-22T01:02:45.719Z,61.32
2018-01-22T01:05:14.116Z,60.52
2018-01-22T01:07:42.464Z,62.44
2018-01-22T01:10:10.979Z,63.12
2018-01-22T01:12:39.346Z,61.85
2018-01-22T01:15:07.730Z,60.93
2018-01-22T01:17:36.109Z,60.47
2018-01-22T01:20:04.482Z,60.90
2018-01-22T01:22:32.855Z,60.76
2018-01-22T01:25:01.252Z,61.34
2018-01-22T01:27:29.623Z,60.63
2018-01-22T01:29:57.996Z,61.49
2018-01-22T01:32:26.359Z,60.85
2018-01-22T01:34:54.711Z,60.63
2018-01-22T01:37:23.462Z,62.07
2018-01-22T01:39:51.999Z,61.94
2018-01-22T01:42:20.368Z,62.51
2018-01-22T01:44:48.787Z,61.83
2018-01-22T01:47:17.238Z,63.52
2018-01-22T01:49:45.645Z,63.61
2018-01-22T01:52:14.020Z,63.29
2018-01-22T01:54:42.505Z,63.69
2018-01-22T01:57:10.891Z,62.24
2018-01-22T01:59:39.247Z,62.99
2018-01-22T02:02:07.620Z,63.41
2018-01-22T02:04:35.971Z,64.14
2018-01-22T02:07:04.333Z,62.98
2018-01-22T02:09:33.075Z,62.23
2018-01-22T02:12:01.494Z,61.68
2018-01-22T02:14:29.840Z,62.12
2018-01-22T02:16:58.219Z,62.22
2018-01-22T02:19:26.576Z,63.36
2018-01-22T02:21:54.943Z,63.74
2018-01-22T02:24:23.354Z,63.52
2018-01-22T02:26:51.721Z,62.78
2018-01-22T02:29:20.089Z,63.08
2018-01-22T02:31:48.478Z,63.14
2018-01-22T02:34:17.064Z,62.71
2018-01-22T02:36:45.457Z,62.00
2018-01-22T02:39:13.912Z,63.05
2018-01-22T02:41:42.292Z,62.91
2018-01-22T02:44:10.646Z,61.85
2018-01-22T02:46:39.484Z,62.33
2018-01-22T02:49:07.860Z,61.57
2018-01-22T02:51:36.236Z,61.02
2018-01-22T02:54:04.683Z,62.23
2018-01-22T02:56:33.103Z,61.04
2018-01-22T02:59:01.583Z,64.03
2018-01-22T03:01:29.967Z,65.51
2018-01-22T03:03:58.324Z,64.56
2018-01-22T03:06:26.729Z,64.13
2018-01-22T03:08:55.081Z,62.82
2018-01-22T03:11:23.480Z,63.68
2018-01-22T03:13:51.866Z,64.80
2018-01-22T03:16:20.245Z,63.69
2018-01-22T03:18:48.628Z,63.06
2018-01-22T03:21:17.000Z,63.23
2018-01-22T03:23:45.374Z,62.19
2018-01-22T03:26:13.764Z,62.97
2018-01-22T03:28:42.187Z,62.65
2018-01-22T03:31:10.572Z,61.64
2018-01-22T03:33:38.924Z,62.82
2018-01-22T03:36:07.328Z,62.69
2018-01-22T03:38:35.663Z,63.85
2018-01-22T03:41:04.037Z,63.14
2018-01-22T03:43:32.402Z,61.89
2018-01-22T03:46:00.764Z,62.07
2018-01-22T03:48:29.150Z,61.79
2018-01-22T03:50:57.639Z,60.74
2018-01-22T03:53:25.998Z,61.30
2018-01-22T03:55:54.402Z,64.13
2018-01-22T03:58:22.768Z,65.05
2018-01-22T04:00:51.125Z,64.28
2018-01-22T04:03:19.534Z,63.92
2018-01-22T04:05:47.900Z,62.51
2018-01-22T04:08:16.257Z,63.07
2018-01-22T04:10:44.619Z,63.33
2018-01-22T04:13:12.974Z,62.42
2018-01-22T04:15:41.807Z,64.58
2018-01-22T04:18:10.168Z,64.76
2018-01-22T04:20:38.528Z,64.88
2018-01-22T04:23:07.084Z,64.66
2018-01-22T04:25:35.457Z,63.45
2018-01-22T04:28:03.946Z,63.26
2018-01-22T04:30:32.494Z,62.95
2018-01-22T04:33:00.942Z,62.64
2018-01-22T04:35:29.695Z,63.27
2018-01-22T04:37:58.058Z,63.54
2018-01-22T04:40:26.428Z,63.58
2018-01-22T04:42:54.919Z,62.68
2018-01-22T04:45:23.318Z,62.13
2018-01-22T04:47:51.686Z,62.04
2018-01-22T04:50:20.051Z,62.72
2018-01-22T04:52:48.408Z,63.00
2018-01-22T04:55:16.766Z,64.50
2018-01-22T04:57:45.529Z,64.54
2018-01-22T05:00:13.975Z,63.48
2018-01-22T05:02:42.334Z,66.04
2018-01-22T05:05:10.706Z,66.09
2018-01-22T05:07:39.059Z,63.30
2018-01-22T05:10:07.984Z,63.55
2018-01-22T05:12:36.339Z,64.26
2018-01-22T05:15:05.091Z,65.33
2018-01-22T05:17:33.464Z,65.01
2018-01-22T05:20:01.832Z,64.76
2018-01-22T05:22:30.222Z,65.53
2018-01-22T05:24:58.578Z,65.32
2018-01-22T05:27:26.992Z,64.55
2018-01-22T05:29:55.447Z,64.27
2018-01-22T05:32:23.799Z,63.81
2018-01-22T05:34:52.147Z,63.72
2018-01-22T05:37:21.005Z,63.25
2018-01-22T05:39:49.372Z,64.71
2018-01-22T05:42:17.744Z,64.46
2018-01-22T05:44:46.101Z,64.82
2018-01-22T05:47:14.483Z,64.34
2018-01-22T05:49:42.992Z,64.59
2018-01-22T05:52:11.364Z,64.16
2018-01-22T05:54:39.722Z,63.01
2018-01-22T05:57:08.091Z,63.32
2018-01-22T05:59:36.436Z,62.70
2018-01-22T06:02:04.805Z,62.28
2018-01-22T06:04:33.255Z,63.79
2018-01-22T06:07:01.624Z,64.77
2018-01-22T06:09:30.009Z,64.96
2018-01-22T06:11:58.399Z,63.54
2018-01-22T06:14:26.754Z,63.37
2018-01-22T06:16:55.122Z,63.33
2018-01-22T06:19:23.511Z,62.34
2018-01-22T06:21:51.878Z,64.57
2018-01-22T06:24:20.230Z,63.57
2018-01-22T06:26:48.595Z,63.53
2018-01-22T06:29:16.951Z,61.89
2018-01-22T06:31:45.391Z,62.40
2018-01-22T06:34:13.751Z,63.37
2018-01-22T06:36:42.510Z,62.83
2018-01-22T06:39:10.895Z,63.90
2018-01-22T06:41:39.368Z,64.15
2018-01-22T06:44:07.739Z,63.43
2018-01-22T06:46:36.095Z,64.70
2018-01-22T06:49:04.443Z,65.26
2018-01-22T06:51:33.202Z,64.66
2018-01-22T06:54:01.574Z,64.06
2018-01-22T06:56:29.927Z,63.39
2018-01-22T06:58:58.299Z,64.50
2018-01-22T07:01:26.770Z,64.06
2018-01-22T07:03:55.126Z,62.72
2018-01-22T07:06:23.962Z,62.15
2018-01-22T07:08:52.321Z,63.46
2018-01-22T07:11:20.720Z,62.49
2018-01-22T07:13:49.075Z,63.88
2018-01-22T07:16:17.436Z,62.39
2018-01-22T07:18:46.595Z,63.04
2018-01-22T07:21:14.980Z,62.07
2018-01-22T07:23:43.328Z,61.86
2018-01-22T07:26:11.699Z,61.29
2018-01-22T07:28:40.871Z,61.59
2018-01-22T07:31:09.291Z,61.74
2018-01-22T07:33:37.650Z,60.93
2018-01-22T07:36:06.012Z,63.19
2018-01-22T07:38:34.398Z,62.00
2018-01-22T07:41:02.772Z,60.46
2018-01-22T07:43:31.179Z,61.73
2018-01-22T07:46:00.484Z,61.47
2018-01-22T07:48:28.853Z,62.12
2018-01-22T07:50:57.471Z,61.42
2018-01-22T07:53:25.862Z,60.30
2018-01-22T07:55:54.714Z,59.69
2018-01-22T07:58:23.082Z,60.44
2018-01-22T08:00:51.453Z,60.11
2018-01-22T08:03:19.852Z,61.69
2018-01-22T08:05:48.211Z,60.99
2018-01-22T08:08:16.639Z,62.19
2018-01-22T08:10:45.086Z,62.53
2018-01-22T08:13:13.439Z,60.27
2018-01-22T08:15:41.844Z,58.53
2018-01-22T08:18:10.224Z,59.94
2018-01-22T08:20:38.587Z,60.88
2018-01-22T08:23:06.936Z,60.29
2018-01-22T08:25:35.744Z,59.30
2018-01-22T08:28:04.152Z,59.00
2018-01-22T08:30:32.508Z,59.59
2018-01-22T08:33:00.859Z,59.02
2018-01-22T08:35:29.711Z,58.78
2018-01-22T08:37:58.076Z,59.77
2018-01-22T08:40:26.464Z,59.00
2018-01-22T08:42:54.828Z,59.25
2018-01-22T08:45:23.220Z,59.83
2018-01-22T08:47:51.594Z,60.35
2018-01-22T08:50:20.036Z,59.88
2018-01-22T08:52:48.455Z,60.00
2018-01-22T08:55:16.840Z,59.35
2018-01-22T08:57:45.210Z,58.91
2018-01-22T09:00:13.577Z,59.22
2018-01-22T09:02:41.984Z,59.53
2018-01-22T09:05:10.460Z,58.93
2018-01-22T09:07:38.843Z,58.08
2018-01-22T09:10:07.312Z,56.16
2018-01-22T09:12:35.672Z,56.50
2018-01-22T09:15:04.033Z,57.75
2018-01-22T09:17:32.418Z,56.57
2018-01-22T09:20:00.806Z,56.87
2018-01-22T09:22:29.177Z,56.69
2018-01-22T09:24:57.586Z,55.83
2018-01-22T09:27:26.099Z,54.09
2018-01-22T09:29:54.549Z,53.47
2018-01-22T09:32:22.934Z,53.62
2018-01-22T09:34:51.280Z,52.64
2018-01-22T09:37:19.650Z,50.96
2018-01-22T09:39:47.996Z,50.25
2018-01-22T09:42:16.362Z,48.17
2018-01-22T09:44:44.732Z,49.85
2018-01-22T09:47:13.218Z,49.30
2018-01-22T09:49:41.648Z,48.91
2018-01-22T09:52:10.008Z,50.09
2018-01-22T09:54:38.849Z,50.86
2018-01-22T09:57:07.209Z,52.15
2018-01-22T09:59:35.564Z,52.17
2018-01-22T10:02:03.924Z,52.03
2018-01-22T10:04:32.772Z,53.14
2018-01-22T10:07:01.140Z,52.01
2018-01-22T10:09:29.716Z,51.75
2018-01-22T10:11:58.086Z,52.35
2018-01-22T10:14:26.460Z,54.11
2018-01-22T10:16:54.828Z,53.78
2018-01-22T10:19:23.185Z,54.84
2018-01-22T10:21:51.956Z,55.06
2018-01-22T10:24:20.339Z,54.38
2018-01-22T10:26:48.707Z,54.02
2018-01-22T10:29:17.108Z,54.54
2018-01-22T10:31:45.876Z,52.23
2018-01-22T10:34:14.249Z,52.76
2018-01-22T10:36:42.716Z,51.35
2018-01-22T10:39:11.496Z,53.39
2018-01-22T10:41:39.868Z,53.60
2018-01-22T10:44:08.228Z,53.64
2018-01-22T10:46:36.683Z,54.48
2018-01-22T10:49:05.428Z,54.26
2018-01-22T10:51:33.786Z,54.45
2018-01-22T10:54:02.227Z,54.82
2018-01-22T10:56:31.085Z,55.63
2018-01-22T10:58:59.440Z,53.97
2018-01-22T11:01:27.944Z,53.31
2018-01-22T11:03:56.331Z,52.41
2018-01-22T11:06:24.722Z,52.19
2018-01-22T11:08:53.076Z,51.90
2018-01-22T11:11:21.555Z,53.06
2018-01-22T11:13:49.902Z,52.00
2018-01-22T11:16:18.257Z,53.27
2018-01-22T11:18:47.013Z,54.19
2018-01-22T11:21:15.452Z,53.77
2018-01-22T11:23:43.963Z,53.05
2018-01-22T11:26:12.340Z,53.44
2018-01-22T11:28:40.703Z,54.07
2018-01-22T11:31:09.072Z,54.33
2018-01-22T11:33:37.495Z,54.02
2018-01-22T11:36:05.860Z,52.98
2018-01-22T11:38:34.260Z,52.49
2018-01-22T11:41:02.626Z,53.24
2018-01-22T11:43:30.994Z,51.70
2018-01-22T11:45:59.439Z,53.88
2018-01-22T11:48:27.796Z,53.98
2018-01-22T11:50:56.550Z,53.94
2018-01-22T11:53:24.921Z,53.51
2018-01-22T11:55:53.284Z,53.61
2018-01-22T11:58:21.648Z,52.82
2018-01-22T12:00:50.024Z,51.91
2018-01-22T12:03:18.438Z,52.11
2018-01-22T12:05:46.818Z,52.17
2018-01-22T12:08:15.248Z,52.71
2018-01-22T12:10:44.022Z,52.72
2018-01-22T12:13:12.873Z,53.15
2018-01-22T12:15:41.223Z,51.96
2018-01-22T12:18:09.572Z,51.92
2018-01-22T12:20:37.948Z,52.62
2018-01-22T12:23:06.720Z,51.23
2018-01-22T12:25:35.175Z,52.26
2018-01-22T12:28:03.521Z,51.48
2018-01-22T12:30:31.973Z,51.12
2018-01-22T12:33:00.334Z,51.14
2018-01-22T12:35:28.692Z,51.34
2018-01-22T12:37:57.036Z,51.63
2018-01-22T12:40:25.490Z,51.74
2018-01-22T12:42:53.833Z,52.65
2018-01-22T12:45:22.260Z,51.11
2018-01-22T12:47:50.607Z,51.70
2018-01-22T12:50:18.995Z,52.56
2018-01-22T12:52:47.431Z,51.64
2018-01-22T12:55:15.799Z,52.10
2018-01-22T12:57:44.200Z,52.22
2018-01-22T13:00:12.580Z,52.43
2018-01-22T13:02:40.927Z,52.37
2018-01-22T13:05:09.444Z,53.79
2018-01-22T13:07:37.812Z,52.78
2018-01-22T13:10:06.169Z,51.35
2018-01-22T13:12:34.536Z,51.38
2018-01-22T13:15:02.912Z,51.13
2018-01-22T13:17:31.268Z,51.47
2018-01-22T13:20:00.112Z,51.54
2018-01-22T13:22:28.496Z,51.23
2018-01-22T13:24:56.880Z,51.22
2018-01-22T13:27:25.244Z,50.62
2018-01-22T13:29:53.597Z,50.68
2018-01-22T13:32:21.947Z,50.29
2018-01-22T13:34:50.700Z,52.08
2018-01-22T13:37:19.064Z,51.84
2018-01-22T13:39:47.470Z,52.46
2018-01-22T13:42:15.836Z,53.38
2018-01-22T13:44:44.215Z,51.59
2018-01-22T13:47:12.580Z,51.44
2018-01-22T13:49:40.999Z,50.41
2018-01-22T13:52:09.452Z,52.20
2018-01-22T13:54:37.805Z,52.89
2018-01-22T13:57:06.170Z,53.11
2018-01-22T13:59:34.517Z,51.73
2018-01-22T14:02:02.996Z,50.78
2018-01-22T14:04:31.452Z,49.17
2018-01-22T14:06:59.812Z,48.56
2018-01-22T14:09:28.164Z,48.22
2018-01-22T14:11:56.595Z,49.61
2018-01-22T14:14:24.939Z,48.52
2018-01-22T14:16:53.301Z,48.49
2018-01-22T14:19:21.701Z,49.55
2018-01-22T14:21:50.051Z,48.80
2018-01-22T14:24:18.888Z,50.01
2018-01-22T14:26:47.298Z,50.32
2018-01-22T14:29:15.664Z,51.43
2018-01-22T14:31:44.136Z,51.64
2018-01-22T14:34:12.484Z,51.25
2018-01-22T14:36:40.882Z,50.67
2018-01-22T14:39:09.232Z,50.50
2018-01-22T14:41:37.640Z,49.57
2018-01-22T14:44:06.020Z,49.90
2018-01-22T14:46:34.413Z,49.09
2018-01-22T14:49:02.760Z,48.95
2018-01-22T14:51:31.152Z,48.13
2018-01-22T14:53:59.507Z,48.01
2018-01-22T14:56:27.873Z,47.67
2018-01-22T14:58:56.230Z,46.38
2018-01-22T15:01:24.628Z,48.57
2018-01-22T15:03:53.606Z,48.20
2018-01-22T15:06:22.448Z,48.01
2018-01-22T15:08:50.800Z,48.53
2018-01-22T15:11:19.156Z,49.50
2018-01-22T15:13:48.101Z,48.77
2018-01-22T15:16:16.456Z,48.67
2018-01-22T15:18:44.853Z,48.98
2018-01-22T15:21:13.212Z,48.99
2018-01-22T15:23:41.569Z,48.42
2018-01-22T15:26:10.412Z,48.67
2018-01-22T15:28:38.779Z,48.33
2018-01-22T15:31:07.145Z,48.88
2018-01-22T15:33:35.509Z,48.49
2018-01-22T15:36:03.885Z,49.09
2018-01-22T15:38:32.241Z,51.17
2018-01-22T15:41:01.006Z,52.00
2018-01-22T15:43:29.356Z,53.06
2018-01-22T15:45:57.719Z,52.83
2018-01-22T15:48:26.185Z,54.60
2018-01-22T15:50:54.531Z,55.13
2018-01-22T15:53:22.979Z,54.93
2018-01-22T15:55:51.372Z,53.70
2018-01-22T15:58:19.747Z,53.97
2018-01-22T16:00:48.112Z,53.59
2018-01-22T16:03:16.489Z,52.58
2018-01-22T16:05:44.852Z,53.37
2018-01-22T16:08:13.261Z,53.84
2018-01-22T16:10:41.728Z,54.22
2018-01-22T16:13:10.192Z,53.20
2018-01-22T16:15:38.564Z,53.06
2018-01-22T16:18:07.042Z,52.65
2018-01-22T16:20:35.457Z,52.51
2018-01-22T16:23:03.828Z,52.79
2018-01-22T16:25:32.221Z,53.95
2018-01-22T16:28:00.582Z,54.40
2018-01-22T16:30:29.080Z,54.74
2018-01-22T16:32:57.432Z,54.90
2018-01-22T16:35:25.811Z,54.14
2018-01-22T16:37:54.175Z,52.77
2018-01-22T16:40:22.544Z,54.30
2018-01-22T16:42:50.972Z,53.84
2018-01-22T16:45:19.351Z,55.15
2018-01-22T16:47:53.247Z,55.77
2018-01-22T16:50:21.602Z,55.90
2018-01-22T16:52:49.976Z,53.78
2018-01-22T16:55:18.389Z,53.46
2018-01-22T16:57:46.751Z,54.87
2018-01-22T17:00:15.118Z,56.10
2018-01-22T17:02:43.475Z,58.77
2018-01-22T17:05:12.239Z,56.68
2018-01-22T17:07:40.600Z,56.80
2018-01-22T17:10:08.992Z,58.99
2018-01-22T17:12:37.460Z,59.19
2018-01-22T17:15:05.827Z,59.66
2018-01-22T17:17:34.233Z,59.29
2018-01-22T17:20:02.603Z,60.52
2018-01-22T17:22:30.990Z,62.70
2018-01-22T17:24:59.360Z,62.56
2018-01-22T17:27:27.739Z,61.95
2018-01-22T17:29:56.119Z,63.83
2018-01-22T17:32:24.508Z,63.87
2018-01-22T17:34:52.860Z,65.42
2018-01-22T17:37:21.239Z,65.64
2018-01-22T17:39:49.632Z,65.17
2018-01-22T17:42:18.000Z,65.61
2018-01-22T17:44:46.551Z,65.61
2018-01-22T17:47:14.957Z,63.96
2018-01-22T17:49:43.320Z,63.11
2018-01-22T17:52:11.686Z,63.42
2018-01-22T17:54:40.041Z,64.74
2018-01-22T17:57:08.858Z,63.85
2018-01-22T17:59:37.219Z,62.78
2018-01-22T18:02:05.584Z,62.95
2018-01-22T18:04:34.553Z,64.75
2018-01-22T18:07:02.920Z,64.43
2018-01-22T18:09:31.515Z,64.58
2018-01-22T18:11:59.948Z,63.87
2018-01-22T18:14:28.304Z,63.72
2018-01-22T18:16:56.672Z,63.64
2018-01-22T18:19:25.945Z,63.86
2018-01-22T18:21:54.336Z,65.75
2018-01-22T18:24:22.688Z,64.44
2018-01-22T18:26:51.079Z,64.61
2018-01-22T18:29:19.472Z,64.92
2018-01-22T18:31:47.832Z,64.26
2018-01-22T18:34:16.188Z,65.60
2018-01-22T18:36:44.580Z,65.31
2018-01-22T18:39:12.936Z,65.55
2018-01-22T18:41:41.347Z,68.19
2018-01-22T18:44:09.724Z,68.10
2018-01-22T18:46:38.090Z,67.04
2018-01-22T18:49:06.445Z,67.24
2018-01-22T18:51:34.861Z,68.29
2018-01-22T18:54:03.223Z,67.90
2018-01-22T18:56:31.616Z,68.04
2018-01-22T18:58:59.983Z,68.52
2018-01-22T19:01:28.363Z,68.14
2018-01-22T19:03:56.729Z,67.61
2018-01-22T19:06:25.138Z,66.46
2018-01-22T19:08:53.532Z,67.43
2018-01-22T19:11:21.905Z,66.39
2018-01-22T19:13:50.259Z,66.34
2018-01-22T19:16:18.641Z,66.96
2018-01-22T19:18:47.000Z,67.38
2018-01-22T19:21:15.359Z,68.11
2018-01-22T19:23:43.812Z,67.73
2018-01-22T19:26:12.265Z,68.04
2018-01-22T19:28:40.672Z,68.17
2018-01-22T19:31:09.535Z,68.23
2018-01-22T19:33:37.894Z,66.61
2018-01-22T19:36:06.280Z,67.23
2018-01-22T19:38:34.741Z,68.56
2018-01-22T19:41:03.104Z,67.72
2018-01-22T19:43:31.493Z,66.64
2018-01-22T19:45:59.923Z,66.13
2018-01-22T19:48:28.380Z,67.23
2018-01-22T19:50:56.753Z,67.26
2018-01-22T19:53:25.131Z,67.88
2018-01-22T19:55:53.496Z,67.42
2018-01-22T19:58:22.899Z,67.23
2018-01-22T20:00:51.742Z,66.02
2018-01-22T20:03:20.679Z,65.78
2018-01-22T20:05:50.390Z,64.69
2018-01-22T20:08:19.076Z,66.04
2018-01-22T20:10:47.557Z,66.39
2018-01-22T20:13:16.038Z,67.16
2018-01-22T20:15:44.845Z,66.73
2018-01-22T20:18:14.332Z,65.63
2018-01-22T20:20:43.178Z,66.54
2018-01-22T20:23:12.143Z,65.95
2018-01-22T20:25:41.111Z,65.71
2018-01-22T20:28:09.694Z,66.74
2018-01-22T20:30:41.244Z,66.14
2018-01-22T20:33:09.989Z,65.30
2018-01-22T20:35:39.433Z,67.05
2018-01-22T20:38:09.314Z,67.12
2018-01-22T20:40:38.759Z,66.96
2018-01-22T20:43:07.436Z,67.00
2018-01-22T20:45:38.449Z,67.35
2018-01-22T20:48:07.664Z,65.95
2018-01-22T20:50:36.347Z,65.58
2018-01-22T20:53:04.997Z,64.79
2018-01-22T20:55:34.030Z,63.47
2018-01-22T20:58:02.572Z,64.36
2018-01-22T21:00:34.799Z,65.19
2018-01-22T21:03:04.708Z,64.97
2018-01-22T21:05:33.189Z,65.01
2018-01-22T21:08:01.789Z,65.57
2018-01-22T21:10:31.894Z,63.95
2018-01-22T21:13:00.383Z,63.39
2018-01-22T21:15:29.472Z,63.56
2018-01-22T21:17:58.538Z,63.99
2018-01-22T21:20:29.976Z,63.86
2018-01-22T21:22:59.543Z,62.26
2018-01-22T21:25:29.339Z,62.39
2018-01-22T21:27:58.009Z,62.07
2018-01-22T21:30:28.007Z,61.70
2018-01-22T21:32:56.440Z,60.26
2018-01-22T21:35:24.819Z,61.11
2018-01-22T21:37:53.226Z,61.24
2018-01-22T21:40:21.590Z,62.07
2018-01-22T21:42:49.936Z,61.86
2018-01-22T21:45:18.365Z,63.56
2018-01-22T21:47:46.823Z,63.97
2018-01-22T21:50:15.188Z,63.17
2018-01-22T21:52:43.556Z,62.83
2018-01-22T21:55:11.977Z,64.01
2018-01-22T21:57:40.339Z,63.67
2018-01-22T22:00:08.715Z,63.58
2018-01-22T22:02:37.086Z,61.60
2018-01-22T22:05:05.442Z,63.94
2018-01-22T22:07:33.846Z,62.79
2018-01-22T22:10:02.211Z,62.93
2018-01-22T22:12:30.716Z,63.52
2018-01-22T22:14:59.405Z,62.96
2018-01-22T22:17:27.850Z,62.14
2018-01-22T22:19:56.200Z,63.30
2018-01-22T22:22:24.971Z,64.49
2018-01-22T22:24:53.389Z,65.23
2018-01-22T22:27:21.790Z,64.64
2018-01-22T22:29:50.157Z,64.48
2018-01-22T22:32:18.581Z,63.84
2018-01-22T22:34:46.936Z,64.93
2018-01-22T22:37:15.349Z,65.22
2018-01-22T22:39:43.700Z,66.29
2018-01-22T22:42:12.068Z,67.09
2018-01-22T22:44:40.436Z,67.69
2018-01-22T22:47:08.792Z,66.47
2018-01-22T22:49:37.312Z,65.67
2018-01-22T22:52:05.683Z,66.12
2018-01-22T22:54:34.119Z,66.58
2018-01-22T22:57:02.487Z,66.15
2018-01-22T22:59:31.341Z,64.83
2018-01-22T23:01:59.708Z,65.62
2018-01-22T23:04:28.071Z,65.46
2018-01-22T23:06:56.476Z,64.65
2018-01-22T23:09:24.852Z,64.15
2018-01-22T23:11:53.223Z,63.94
2018-01-22T23:14:21.604Z,64.41
2018-01-22T23:16:49.970Z,65.15
2018-01-22T23:19:18.340Z,64.11
2018-01-22T23:21:46.704Z,63.23
2018-01-22T23:24:16.644Z,64.04
2018-01-22T23:26:45.011Z,63.71
2018-01-22T23:29:13.386Z,63.35
2018-01-22T23:31:41.780Z,63.18
2018-01-22T23:34:10.677Z,63.43
2018-01-22T23:36:39.076Z,62.72
2018-01-22T23:39:07.444Z,62.85
2018-01-22T23:41:35.799Z,62.97
2018-01-22T23:44:04.339Z,63.93
2018-01-22T23:46:33.094Z,64.21
2018-01-22T23:49:01.684Z,64.40
2018-01-22T23:51:30.071Z,63.67
2018-01-22T23:53:58.427Z,64.04
2018-01-22T23:56:26.792Z,64.95
2018-01-22T23:58:55.155Z,63.92
